Time;durP1;ratioP1;P1;durP2;ratioP2;P2;SDS_P1;SDS_P2;PMS_P1;PMS_P2;Temp;Humidity;BMP_temperature;BMP_pressure;BME280_temperature;BME280_humidity;BME280_pressure;Samples;Min_cycle;Max_cycle;Signal;HPM_P1;HPM_P2
2024/02/06 00:02:00;;;;;;;18.90;6.10;;;;;;;10.54;100.00;99586.56;4970862;28;20043;-94
2024/02/06 00:04:26;;;;;;;14.65;5.93;;;;;;;10.89;100.00;99644.59;4969357;28;20102;-93
2024/02/06 00:06:53;;;;;;;14.40;6.20;;;;;;;10.75;100.00;99619.97;4971885;28;20046;-95
2024/02/06 00:09:20;;;;;;;15.00;5.85;;;;;;;10.80;100.00;99608.38;4972069;28;20054;-95
2024/02/06 00:11:46;;;;;;;13.52;6.35;;;;;;;10.59;100.00;99561.66;4972120;28;20043;-94
2024/02/06 00:14:12;;;;;;;14.05;6.07;;;;;;;10.74;100.00;99565.88;4970419;28;20744;-93
2024/02/06 00:16:40;;;;;;;12.02;5.82;;;;;;;10.91;100.00;99581.59;4966150;28;20039;-94
2024/02/06 00:19:06;;;;;;;14.30;6.07;;;;;;;10.76;100.00;99553.44;4970305;28;20077;-95
2024/02/06 00:21:33;;;;;;;18.25;5.43;;;;;;;11.14;100.00;99622.94;4967089;28;20442;-96
2024/02/06 00:23:59;;;;;;;17.35;5.85;;;;;;;10.77;100.00;99565.81;4969160;28;20047;-94
2024/02/06 00:26:25;;;;;;;17.42;5.65;;;;;;;11.25;100.00;99643.13;4972649;28;20047;-95
2024/02/06 00:28:51;;;;;;;15.63;5.65;;;;;;;10.79;100.00;99553.38;4969845;28;20174;-94
2024/02/06 00:31:17;;;;;;;19.05;5.60;;;;;;;10.93;100.00;99581.56;4963884;28;20039;-93
2024/02/06 00:33:45;;;;;;;12.65;5.55;;;;;;;11.07;100.00;99590.22;4969034;28;20936;-93
2024/02/06 00:36:11;;;;;;;15.05;5.32;;;;;;;10.89;100.00;99554.13;4970160;28;20051;-93
2024/02/06 00:38:37;;;;;;;10.25;4.93;;;;;;;11.32;100.00;99630.63;4967426;28;20051;-95
2024/02/06 00:41:04;;;;;;;11.23;4.40;;;;;;;11.14;100.00;99589.19;4967458;28;20039;-94
2024/02/06 00:43:30;;;;;;;12.18;5.05;;;;;;;11.41;100.00;99633.16;4967176;28;20043;-95
2024/02/06 00:45:57;;;;;;;15.02;6.05;;;;;;;11.31;100.00;99608.44;4969493;28;20066;-94
2024/02/06 00:48:23;;;;;;;13.77;5.68;;;;;;;11.12;100.00;99560.84;4967667;28;20047;-94
2024/02/06 00:50:51;;;;;;;13.52;5.05;;;;;;;11.11;100.00;99549.34;4968156;28;20059;-94
2024/02/06 00:53:17;;;;;;;15.45;5.20;;;;;;;11.15;100.00;99559.03;4975092;28;20058;-94
2024/02/06 00:55:43;;;;;;;15.35;5.85;;;;;;;11.54;100.00;99628.50;4967731;28;20516;-93
2024/02/06 00:58:09;;;;;;;11.93;4.80;;;;;;;11.63;100.00;99640.78;4968037;28;20043;-96
2024/02/06 01:00:35;;;;;;;11.95;5.55;;;;;;;11.12;100.00;99555.53;4972718;28;20043;-94
2024/02/06 01:03:01;;;;;;;11.05;5.60;;;;;;;11.06;100.00;99560.06;4968941;28;20122;-94
2024/02/06 01:05:28;;;;;;;13.88;5.07;;;;;;;11.40;100.00;99611.84;4972044;28;20198;-94
2024/02/06 01:07:56;;;;;;;14.75;6.53;;;;;;;11.58;100.00;99656.84;4968791;28;20038;-94
2024/02/06 01:10:22;;;;;;;15.20;5.63;;;;;;;10.95;100.00;99562.03;4974247;28;20592;-94
2024/02/06 01:12:48;;;;;;;19.30;6.10;;;;;;;11.35;100.00;99638.56;4971257;28;20047;-95
2024/02/06 01:15:14;;;;;;;12.05;5.78;;;;;;;11.17;100.00;99597.16;4970750;28;20039;-94
2024/02/06 01:17:41;;;;;;;14.57;6.68;;;;;;;10.98;100.00;99563.75;4973894;28;20047;-93
2024/02/06 01:20:08;;;;;;;19.13;6.45;;;;;;;11.16;100.00;99595.38;4972083;28;20121;-94
2024/02/06 01:22:34;;;;;;;14.70;6.15;;;;;;;11.16;100.00;99586.53;4973502;28;20046;-94
2024/02/06 01:25:03;;;;;;;18.00;6.22;;;;;;;11.21;100.00;99603.28;4969586;28;20067;-93
2024/02/06 01:27:29;;;;;;;13.75;6.05;;;;;;;11.16;100.00;99600.69;4968595;28;20043;-94
2024/02/06 01:29:56;;;;;;;16.50;6.05;;;;;;;11.48;100.00;99650.78;4970659;28;20054;-94
2024/02/06 01:32:22;;;;;;;13.88;7.03;;;;;;;11.17;100.00;99606.91;4970179;28;20394;-94
2024/02/06 01:34:48;;;;;;;17.08;6.35;;;;;;;10.94;100.00;99568.22;4970864;28;20071;-94
2024/02/06 01:37:15;;;;;;;14.90;6.32;;;;;;;11.38;100.00;99633.19;4968977;28;20130;-94
2024/02/06 01:39:40;;;;;;;23.33;7.75;;;;;;;10.85;100.00;99555.06;4970217;28;20054;-94
2024/02/06 01:42:08;;;;;;;17.80;7.68;;;;;;;11.22;100.00;99605.06;4971636;28;20043;-94
2024/02/06 01:44:35;;;;;;;17.75;7.25;;;;;;;11.37;100.00;99631.44;4975699;28;20043;-94
2024/02/06 01:47:01;;;;;;;16.52;7.63;;;;;;;10.82;100.00;99553.34;4964747;28;20106;-95
2024/02/06 01:49:28;;;;;;;22.25;7.65;;;;;;;10.88;100.00;99577.16;4969359;28;20098;-94
2024/02/06 01:51:54;;;;;;;23.00;7.57;;;;;;;11.19;100.00;99643.25;4965576;28;20043;-94
2024/02/06 01:54:20;;;;;;;17.73;7.85;;;;;;;10.73;100.00;99552.59;4968222;28;20043;-95
2024/02/06 01:56:47;;;;;;;20.58;7.15;;;;;;;10.77;100.00;99543.66;4970801;28;20039;-93
2024/02/06 01:59:15;;;;;;;16.60;8.43;;;;;;;11.20;100.00;99599.75;4968853;28;20063;-94
2024/02/06 02:01:42;;;;;;;20.15;8.05;;;;;;;10.77;100.00;99536.56;4965267;28;20043;-93
2024/02/06 02:04:12;;;;;;;22.60;7.78;;;;;;;11.32;100.00;99627.97;4972343;28;20453;-93
2024/02/06 02:06:38;;;;;;;14.63;7.18;;;;;;;10.95;100.00;99579.75;4972609;28;20059;-93
2024/02/06 02:09:05;;;;;;;13.73;6.97;;;;;;;10.56;100.00;99513.84;4968745;28;20046;-94
2024/02/06 02:11:31;;;;;;;23.40;7.82;;;;;;;11.18;100.00;99612.22;4967922;28;20126;-95
2024/02/06 02:13:57;;;;;;;20.30;7.40;;;;;;;10.73;100.00;99534.84;4967390;28;20055;-93
2024/02/06 02:16:25;;;;;;;21.67;8.02;;;;;;;10.68;100.00;99523.41;4968825;28;20054;-94
2024/02/06 02:18:51;;;;;;;25.60;7.05;;;;;;;10.87;100.00;99559.47;4967705;28;20087;-95
2024/02/06 02:21:19;;;;;;;18.55;7.32;;;;;;;11.03;100.00;99589.38;4969648;28;20045;-94
2024/02/06 02:23:46;;;;;;;15.00;6.95;;;;;;;10.70;100.00;99516.28;4971085;28;20097;-93
2024/02/06 02:26:13;;;;;;;14.00;7.03;;;;;;;10.72;100.00;99506.50;4966865;28;20094;-94
2024/02/06 02:28:41;;;;;;;12.00;6.47;;;;;;;10.68;100.00;99486.16;4970297;28;20106;-94
2024/02/06 02:31:09;;;;;;;15.88;7.93;;;;;;;10.84;100.00;99519.63;4967107;28;20168;-94
2024/02/06 02:33:36;;;;;;;16.42;7.00;;;;;;;10.60;100.00;99488.06;4968479;28;20043;-93
2024/02/06 02:36:03;;;;;;;17.75;7.28;;;;;;;11.04;100.00;99577.84;4966915;28;20078;-94
2024/02/06 02:38:32;;;;;;;20.30;7.93;;;;;;;10.76;100.00;99520.66;4966881;28;20036;-95
2024/02/06 02:40:58;;;;;;;16.67;7.47;;;;;;;10.73;100.00;99497.59;4972714;28;20055;-94
2024/02/06 02:43:24;;;;;;;18.15;7.68;;;;;;;11.10;100.00;99561.78;4972522;28;20039;-94
2024/02/06 02:45:51;;;;;;;22.77;7.95;;;;;;;11.13;100.00;99563.50;4968218;28;20412;-95
2024/02/06 02:48:17;;;;;;;17.42;6.50;;;;;;;10.71;100.00;99480.78;4973056;28;20484;-95
2024/02/06 02:50:43;;;;;;;18.30;7.60;;;;;;;10.86;100.00;99523.13;4974606;28;20413;-94
2024/02/06 02:53:09;;;;;;;19.05;6.97;;;;;;;10.66;100.00;99487.97;4967304;28;20039;-94
2024/02/06 02:55:38;;;;;;;18.65;7.28;;;;;;;11.18;100.00;99560.75;4970725;28;20138;-93
2024/02/06 02:58:05;;;;;;;17.65;7.10;;;;;;;11.15;100.00;99545.72;4977843;28;20050;-94
2024/02/06 03:00:33;;;;;;;19.20;7.38;;;;;;;10.97;100.00;99524.72;4966657;28;20040;-95
2024/02/06 03:02:59;;;;;;;15.23;6.40;;;;;;;11.15;100.00;99551.03;4970437;28;20116;-94
2024/02/06 03:05:25;;;;;;;17.63;6.78;;;;;;;11.28;100.00;99562.38;4971372;28;20035;-93
2024/02/06 03:07:52;;;;;;;12.82;5.82;;;;;;;10.82;100.00;99478.84;4971636;28;20058;-95
2024/02/06 03:10:18;;;;;;;14.07;5.55;;;;;;;10.83;100.00;99480.59;4969493;28;20047;-94
2024/02/06 03:12:46;;;;;;;14.88;6.30;;;;;;;11.14;100.00;99538.63;4969310;28;20051;-94
2024/02/06 03:15:12;;;;;;;14.93;5.75;;;;;;;10.83;100.00;99501.88;4974701;28;20058;-94
2024/02/06 03:17:38;;;;;;;16.27;5.78;;;;;;;10.75;100.00;99471.84;4973359;28;20082;-94
2024/02/06 03:20:06;;;;;;;15.95;5.93;;;;;;;10.73;100.00;99473.66;4974698;28;20042;-95
2024/02/06 03:22:32;;;;;;;22.00;6.65;;;;;;;11.15;100.00;99545.72;4972574;28;20102;-94
2024/02/06 03:24:59;;;;;;;17.88;6.55;;;;;;;10.74;100.00;99462.13;4973435;28;20568;-95
2024/02/06 03:27:25;;;;;;;14.50;6.20;;;;;;;11.12;100.00;99529.78;4972586;28;20070;-93
2024/02/06 03:29:53;;;;;;;13.75;6.05;;;;;;;11.17;100.00;99535.94;4971717;28;20464;-93
2024/02/06 03:32:20;;;;;;;14.65;5.65;;;;;;;10.80;100.00;99466.44;4969647;28;20043;-94
2024/02/06 03:34:46;;;;;;;13.05;5.68;;;;;;;10.72;100.00;99466.59;4976891;28;20147;-93
2024/02/06 03:37:13;;;;;;;19.35;6.70;;;;;;;10.70;100.00;99449.78;4975040;28;20039;-95
2024/02/06 03:39:39;;;;;;;16.25;5.82;;;;;;;10.71;100.00;99462.16;4970826;28;20043;-94
2024/02/06 03:42:06;;;;;;;14.73;5.85;;;;;;;11.11;100.00;99530.69;4975831;28;20027;-95
2024/02/06 03:44:32;;;;;;;16.00;5.32;;;;;;;10.72;100.00;99469.25;4978221;28;20500;-93
2024/02/06 03:47:00;;;;;;;18.23;6.07;;;;;;;10.88;100.00;99499.13;4972034;28;20046;-93
2024/02/06 03:49:27;;;;;;;17.05;5.93;;;;;;;11.09;100.00;99529.84;4971983;28;20132;-95
2024/02/06 03:51:53;;;;;;;17.33;6.43;;;;;;;10.76;100.00;99465.66;4971258;28;20047;-94
2024/02/06 03:54:20;;;;;;;13.80;5.47;;;;;;;10.71;100.00;99464.81;4973823;28;20063;-93
2024/02/06 03:56:46;;;;;;;12.35;5.47;;;;;;;10.65;100.00;99454.31;4970189;28;20035;-94
2024/02/06 03:59:12;;;;;;;14.88;5.18;;;;;;;11.19;100.00;99539.44;4972042;28;20050;-95
2024/02/06 04:01:38;;;;;;;10.40;5.10;;;;;;;11.08;100.00;99515.66;4974763;28;20141;-94
2024/02/06 04:04:07;;;;;;;13.07;5.40;;;;;;;11.20;100.00;99542.97;4972521;28;20044;-93
2024/02/06 04:06:33;;;;;;;12.30;5.78;;;;;;;10.86;100.00;99482.31;4973216;28;20103;-94
2024/02/06 04:08:59;;;;;;;12.13;5.05;;;;;;;10.73;100.00;99451.50;4972258;28;20472;-94
2024/02/06 04:11:25;;;;;;;14.20;5.45;;;;;;;10.91;100.00;99491.13;4970079;28;20138;-93
2024/02/06 04:13:51;;;;;;;13.85;5.07;;;;;;;10.69;100.00;99446.25;4968820;28;20505;-93
2024/02/06 04:16:18;;;;;;;11.30;5.57;;;;;;;10.81;100.00;99453.13;4969653;28;20055;-95
2024/02/06 04:18:44;;;;;;;14.75;6.28;;;;;;;11.18;100.00;99504.84;4973376;28;20399;-95
2024/02/06 04:21:12;;;;;;;14.98;6.00;;;;;;;11.17;100.00;99514.63;4974085;28;20035;-94
2024/02/06 04:23:38;;;;;;;13.77;5.70;;;;;;;11.24;100.00;99537.56;4970962;28;20035;-94
2024/02/06 04:26:07;;;;;;;18.00;6.10;;;;;;;10.68;100.00;99449.81;4968564;28;20106;-94
2024/02/06 04:28:33;;;;;;;18.60;6.43;;;;;;;11.14;100.00;99543.94;4973567;28;20043;-95
2024/02/06 04:31:00;;;;;;;16.70;6.13;;;;;;;11.16;100.00;99518.19;4970872;28;20059;-92
2024/02/06 04:33:26;;;;;;;17.75;5.78;;;;;;;11.28;100.00;99536.59;4967940;28;20051;-95
2024/02/06 04:35:52;;;;;;;16.45;5.05;;;;;;;11.12;100.00;99503.16;4973336;28;20054;-95
2024/02/06 04:38:20;;;;;;;12.43;5.05;;;;;;;11.34;100.00;99538.25;4974219;28;20145;-95
2024/02/06 04:40:53;;;;;;;11.23;4.90;;;;;;;11.07;100.00;99497.06;4967108;28;20047;-93
2024/02/06 04:43:22;;;;;;;13.65;4.70;;;;;;;11.22;100.00;99510.09;4969514;28;21288;-93
2024/02/06 04:45:48;;;;;;;14.40;4.50;;;;;;;11.24;100.00;99513.59;4967506;28;20035;-93
2024/02/06 04:48:14;;;;;;;9.70;5.43;;;;;;;11.25;100.00;99510.03;4969792;28;20046;-93
2024/02/06 04:50:41;;;;;;;9.52;4.55;;;;;;;10.88;100.00;99449.44;4964872;28;20039;-94
2024/02/06 04:53:07;;;;;;;9.98;4.57;;;;;;;10.80;100.00;99446.06;4964909;28;20039;-95
2024/02/06 04:55:35;;;;;;;17.17;5.20;;;;;;;11.17;100.00;99500.41;4970414;28;20042;-94
2024/02/06 04:58:01;;;;;;;17.30;4.60;;;;;;;11.24;100.00;99516.25;4966144;28;20071;-94
2024/02/06 05:00:27;;;;;;;18.08;5.30;;;;;;;11.40;100.00;99534.63;4970194;28;20505;-93
2024/02/06 05:02:54;;;;;;;14.07;4.50;;;;;;;11.46;100.00;99534.53;4966415;28;20044;-93
2024/02/06 05:05:20;;;;;;;12.73;5.22;;;;;;;10.85;100.00;99430.03;4971488;28;20062;-93
2024/02/06 05:07:46;;;;;;;13.02;5.45;;;;;;;10.98;100.00;99447.53;4965864;28;20039;-96
2024/02/06 05:10:12;;;;;;;11.45;5.18;;;;;;;11.37;100.00;99524.91;4967331;28;20050;-94
2024/02/06 05:12:39;;;;;;;12.27;4.80;;;;;;;11.20;100.00;99495.06;4974587;28;20039;-95
2024/02/06 05:15:08;;;;;;;11.88;5.82;;;;;;;11.21;100.00;99518.09;4968113;28;20098;-93
2024/02/06 05:17:40;;;;;;;17.35;5.00;;;;;;;11.26;100.00;99522.44;4968088;28;20102;-94
2024/02/06 05:20:08;;;;;;;18.27;5.57;;;;;;;11.07;100.00;99483.75;4959116;28;20067;-94
2024/02/06 05:22:37;;;;;;;10.35;4.75;;;;;;;11.35;100.00;99536.50;4969417;28;20073;-93
2024/02/06 05:25:03;;;;;;;13.95;5.32;;;;;;;11.33;100.00;99543.63;4968951;28;20054;-96
2024/02/06 05:27:29;;;;;;;14.45;5.40;;;;;;;10.79;100.00;99460.25;4966507;28;20047;-95
2024/02/06 05:29:57;;;;;;;13.18;5.25;;;;;;;10.93;100.00;99483.09;4965504;28;20058;-94
2024/02/06 05:32:23;;;;;;;10.23;4.80;;;;;;;10.87;100.00;99484.09;4963952;28;20139;-94
2024/02/06 05:34:50;;;;;;;14.55;5.22;;;;;;;11.19;100.00;99542.09;4965114;28;20055;-94
2024/02/06 05:37:17;;;;;;;14.43;4.68;;;;;;;10.64;100.00;99450.75;4963101;28;20058;-94
2024/02/06 05:39:45;;;;;;;20.67;5.43;;;;;;;10.95;100.00;99510.56;4966172;28;20043;-94
2024/02/06 05:42:11;;;;;;;17.10;5.25;;;;;;;10.60;100.00;99454.34;4973334;28;20043;-94
2024/02/06 05:44:38;;;;;;;10.25;4.93;;;;;;;10.69;100.00;99487.91;4970514;28;20038;-93
2024/02/06 05:47:07;;;;;;;21.05;6.38;;;;;;;10.50;100.00;99462.53;4965353;28;20047;-94
2024/02/06 05:49:33;;;;;;;16.85;5.70;;;;;;;10.72;100.00;99506.50;4967230;28;20071;-95
2024/02/06 05:52:00;;;;;;;15.70;5.82;;;;;;;10.35;100.00;99451.22;4973761;28;20042;-94
2024/02/06 05:54:26;;;;;;;11.70;6.55;;;;;;;10.90;100.00;99547.88;4972718;28;20051;-94
2024/02/06 05:56:52;;;;;;;14.98;5.75;;;;;;;10.91;100.00;99555.00;4968170;28;20047;-93
2024/02/06 05:59:18;;;;;;;16.15;6.65;;;;;;;10.84;100.00;99534.69;4968790;28;20050;-95
2024/02/06 06:01:45;;;;;;;16.45;7.32;;;;;;;10.97;100.00;99556.66;4970798;28;20039;-94
2024/02/06 06:04:12;;;;;;;15.43;6.72;;;;;;;10.42;100.00;99460.84;4966612;28;20314;-93
2024/02/06 06:06:38;;;;;;;14.55;5.82;;;;;;;10.68;100.00;99502.13;4964966;28;20404;-94
2024/02/06 06:09:07;;;;;;;21.65;6.18;;;;;;;10.69;100.00;99494.13;4966027;28;20043;-95
2024/02/06 06:11:37;;;;;;;12.43;5.47;;;;;;;10.53;100.00;99466.00;4967882;28;20046;-95
2024/02/06 06:14:02;;;;;;;;;;;;;;;11.03;100.00;99554.75;4971614;28;20062;-96
2024/02/06 06:16:29;;;;;;;17.23;7.53;;;;;;;10.92;100.00;99535.44;4965245;28;19981;-93
2024/02/06 06:18:55;;;;;;;20.45;7.03;;;;;;;10.64;100.00;99493.31;4959360;28;20051;-95
2024/02/06 06:21:22;;;;;;;19.23;7.20;;;;;;;10.73;100.00;99510.03;4962889;28;20166;-94
2024/02/06 06:23:48;;;;;;;15.30;7.18;;;;;;;10.63;100.00;99496.88;4963745;28;20490;-92
2024/02/06 06:26:14;;;;;;;16.10;6.57;;;;;;;11.00;100.00;99541.53;4961557;28;20067;-96
2024/02/06 06:28:40;;;;;;;19.38;6.80;;;;;;;11.20;100.00;99562.47;4961496;28;20046;-95
2024/02/06 06:31:08;;;;;;;19.63;6.40;;;;;;;11.10;100.00;99534.25;4961326;28;20454;-95
2024/02/06 06:33:34;;;;;;;15.57;5.78;;;;;;;10.79;100.00;99473.56;4962229;28;20035;-95
2024/02/06 06:36:00;;;;;;;16.55;5.75;;;;;;;11.20;100.00;99543.84;4961797;28;20051;-95
2024/02/06 06:38:27;;;;;;;18.08;6.32;;;;;;;11.16;100.00;99536.81;4966521;28;20039;-93
2024/02/06 06:40:53;;;;;;;12.45;6.07;;;;;;;11.17;100.00;99525.28;4965134;28;20050;-94
2024/02/06 06:43:19;;;;;;;17.38;7.00;;;;;;;10.96;100.00;99483.06;4967008;28;20369;-93
2024/02/06 06:45:48;;;;;;;15.90;6.65;;;;;;;11.10;100.00;99511.19;4961067;28;20107;-95
2024/02/06 06:48:14;;;;;;;13.50;6.82;;;;;;;11.11;100.00;99504.09;4958964;29;20051;-95
2024/02/06 06:50:40;;;;;;;13.90;5.80;;;;;;;10.82;100.00;99460.22;4960312;28;20043;-95
2024/02/06 06:53:07;;;;;;;17.25;6.53;;;;;;;11.42;100.00;99554.13;4960677;28;20124;-94
2024/02/06 06:55:34;;;;;;;21.40;5.32;;;;;;;11.40;100.00;99558.59;4957659;28;20039;-94
2024/02/06 06:58:00;;;;;;;12.02;5.55;;;;;;;11.16;100.00;99510.19;4965395;28;20130;-95
2024/02/06 07:00:26;;;;;;;15.70;5.57;;;;;;;10.90;100.00;99468.94;4956074;28;20145;-96
2024/02/06 07:02:52;;;;;;;11.73;5.65;;;;;;;11.05;100.00;99493.53;4959604;28;20686;-95
2024/02/06 07:05:22;;;;;;;15.98;5.88;;;;;;;11.44;100.00;99544.31;4958174;28;20040;-94
2024/02/06 07:07:48;;;;;;;15.45;5.72;;;;;;;11.03;100.00;99482.91;4957788;29;20050;-95
2024/02/06 07:10:15;;;;;;;33.53;13.55;;;;;;;11.39;100.00;99527.56;4965076;28;20039;-93
2024/02/06 07:12:42;;;;;;;38.50;17.08;;;;;;;11.42;100.00;99527.50;4970914;28;20049;-94
2024/02/06 07:15:09;;;;;;;37.75;16.75;;;;;;;11.25;100.00;99504.69;4968053;28;20038;-94
2024/02/06 07:17:34;;;;;;;17.73;7.07;;;;;;;11.36;100.00;99530.25;4964440;28;20039;-96
2024/02/06 07:20:02;;;;;;;16.80;6.40;;;;;;;11.20;100.00;99495.06;4962409;28;20043;-96
2024/02/06 07:22:32;;;;;;;14.70;8.02;;;;;;;11.09;100.00;99476.59;4962331;28;20047;-94
2024/02/06 07:24:59;;;;;;;17.55;6.50;;;;;;;11.32;100.00;99532.13;4966681;28;20074;-94
2024/02/06 07:27:25;;;;;;;17.65;6.72;;;;;;;11.09;100.00;99500.56;4964257;28;20054;-94
2024/02/06 07:29:52;;;;;;;13.52;6.05;;;;;;;11.17;100.00;99511.97;4974127;28;20039;-94
2024/02/06 07:32:18;;;;;;;10.63;6.25;;;;;;;10.90;100.00;99476.03;4966962;28;20043;-94
2024/02/06 07:34:44;;;;;;;13.65;6.40;;;;;;;11.23;100.00;99525.19;4967475;28;20074;-93
2024/02/06 07:37:10;;;;;;;15.75;8.95;;;;;;;11.28;100.00;99523.28;4953770;28;20386;-93
2024/02/06 07:39:38;;;;;;;11.65;6.05;;;;;;;11.46;100.00;99551.38;4960780;29;20028;-94
2024/02/06 07:42:04;;;;;;;21.50;7.38;;;;;;;11.46;100.00;99547.84;4967278;28;20051;-95
2024/02/06 07:44:30;;;;;;;18.30;6.65;;;;;;;11.42;100.00;99546.13;4972738;28;20047;-93
2024/02/06 07:46:57;;;;;;;11.15;6.07;;;;;;;11.47;100.00;99539.81;4964049;28;20051;-95
2024/02/06 07:49:23;;;;;;;15.90;6.90;;;;;;;11.51;100.00;99541.53;4965461;28;20374;-94
2024/02/06 07:51:50;;;;;;;22.15;13.93;;;;;;;11.38;100.00;99516.00;4960807;29;20050;-94
2024/02/06 07:54:16;;;;;;;15.55;9.15;;;;;;;11.62;100.00;99551.09;4961230;29;20139;-96
2024/02/06 07:56:42;;;;;;;16.00;6.38;;;;;;;11.29;100.00;99501.06;4967043;28;20067;-95
2024/02/06 07:59:13;;;;;;;12.73;6.38;;;;;;;11.17;100.00;99485.34;4977581;28;20564;-94
2024/02/06 08:01:39;;;;;;;12.55;6.30;;;;;;;11.16;100.00;99472.91;4960012;29;20043;-93
2024/02/06 08:04:07;;;;;;;11.88;5.57;;;;;;;11.62;100.00;99545.75;4960229;28;20090;-94
2024/02/06 08:06:33;;;;;;;12.63;6.07;;;;;;;11.30;100.00;99486.88;4962263;28;20067;-95
2024/02/06 08:09:00;;;;;;;14.15;5.18;;;;;;;11.29;100.00;99479.78;4966510;28;20054;-95
2024/02/06 08:11:25;;;;;;;12.73;5.95;;;;;;;11.66;100.00;99539.47;4962213;28;20505;-95
2024/02/06 08:13:51;;;;;;;18.48;6.53;;;;;;;11.88;100.00;99569.28;4960339;29;20147;-95
2024/02/06 08:16:18;;;;;;;15.73;7.05;;;;;;;11.85;100.00;99571.97;4960345;29;20094;-94
2024/02/06 08:18:44;;;;;;;12.95;6.75;;;;;;;11.37;100.00;99481.44;4968779;28;20042;-95
2024/02/06 08:21:11;;;;;;;14.88;6.05;;;;;;;11.77;100.00;99557.91;4975473;28;20134;-94
2024/02/06 08:23:38;;;;;;;18.15;7.57;;;;;;;11.36;100.00;99493.84;4961623;28;20110;-95
2024/02/06 08:26:04;;;;;;;21.70;8.57;;;;;;;11.55;100.00;99507.69;4965179;28;20134;-95
2024/02/06 08:28:30;;;;;;;16.58;6.80;;;;;;;11.48;100.00;99496.28;4962659;28;20501;-96
2024/02/06 08:30:57;;;;;;;15.77;6.68;;;;;;;11.78;100.00;99531.25;4959951;29;20055;-96
2024/02/06 08:33:24;;;;;;;24.67;7.10;;;;;;;11.94;100.00;99526.50;4970278;28;20069;-95
2024/02/06 08:35:52;;;;;;;33.92;13.95;;;;;;;12.24;100.00;99556.97;4980496;28;20047;-96
2024/02/06 08:38:20;;;;;;;105.82;39.17;;;;;;;12.36;100.00;99566.53;4980354;28;20074;-93
2024/02/06 08:40:47;;;;;;;58.45;25.08;;;;;;;12.49;100.00;99568.00;4970193;28;20433;-92
2024/02/06 08:43:13;;;;;;;27.50;14.20;;;;;;;12.12;100.00;99490.56;4967363;28;20374;-94
2024/02/06 08:45:39;;;;;;;18.67;9.35;;;;;;;12.70;100.00;99576.44;4959595;29;20043;-94
2024/02/06 08:48:06;;;;;;;24.75;11.10;;;;;;;12.90;100.00;99573.28;4972441;28;20106;-95
2024/02/06 08:50:33;;;;;;;14.50;8.07;;;;;;;13.03;100.00;99582.75;4960347;29;20051;-94
2024/02/06 08:52:59;;;;;;;15.15;7.18;;;;;;;13.13;100.00;99554.06;4961471;29;20051;-96
2024/02/06 08:55:26;;;;;;;21.70;8.35;;;;;;;12.95;100.00;99496.66;4959521;29;20047;-94
2024/02/06 08:57:53;;;;;;;22.42;10.60;;;;;;;13.37;100.00;99536.56;4960549;28;20051;-95
2024/02/06 09:00:19;;;;;;;17.05;6.15;;;;;;;13.66;100.00;99565.19;4966183;28;20150;-95
2024/02/06 09:02:46;;;;;;;16.88;6.88;;;;;;;13.60;100.00;99543.97;4982552;28;20039;-96
2024/02/06 09:05:12;;;;;;;12.75;6.38;;;;;;;13.63;100.00;99521.63;4970526;28;20043;-96
2024/02/06 09:07:38;;;;;;;12.77;6.47;;;;;;;14.26;100.00;99576.00;4963707;28;20088;-94
2024/02/06 09:10:06;;;;;;;12.50;5.25;;;;;;;13.96;100.00;99488.56;4961814;29;20050;-93
2024/02/06 09:12:33;;;;;;;15.32;5.97;;;;;;;14.10;100.00;99496.22;4963123;28;20036;-96
2024/02/06 09:15:01;;;;;;;11.82;5.60;;;;;;;14.63;100.00;99550.84;4962688;28;20051;-96
2024/02/06 09:17:27;;;;;;;11.95;6.30;;;;;;;14.36;100.00;99491.88;4959091;29;20043;-95
2024/02/06 09:19:53;;;;;;;25.25;13.30;;;;;;;14.49;100.00;99520.00;4961403;28;20102;-96
2024/02/06 09:22:19;;;;;;;20.10;11.50;;;;;;;14.83;100.00;99577.84;4957149;28;20047;-95
2024/02/06 09:24:45;;;;;;;12.35;4.75;;;;;;;14.76;100.00;99562.91;4960596;28;20095;-94
2024/02/06 09:27:12;;;;;;;16.85;6.63;;;;;;;14.56;100.00;99532.28;4959016;29;20047;-95
2024/02/06 09:29:39;;;;;;;10.57;4.43;;;;;;;14.65;100.00;99535.59;4960371;28;20050;-94
2024/02/06 09:32:05;;;;;;;22.45;11.07;;;;;;;14.85;100.00;99565.28;4958379;28;20031;-94
2024/02/06 09:34:31;;;;;;;17.92;10.25;;;;;;;14.51;100.00;99552.94;4960421;28;20130;-95
2024/02/06 09:36:57;;;;;;;14.65;7.25;;;;;;;14.20;100.00;99523.53;4964149;28;20069;-94
2024/02/06 09:39:23;;;;;;;12.93;5.28;;;;;;;14.12;100.00;99512.22;4960610;28;20047;-94
2024/02/06 09:41:49;;;;;;;16.10;5.53;;;;;;;13.99;100.00;99519.72;4960388;28;20040;-94
2024/02/06 09:44:16;;;;;;;13.75;4.53;;;;;;;13.82;100.00;99524.69;4964720;28;20039;-94
2024/02/06 09:46:45;;;;;;;10.02;5.47;;;;;;;13.98;100.00;99534.00;4958469;28;20055;-93
2024/02/06 09:49:11;;;;;;;13.35;6.35;;;;;;;13.88;100.00;99545.88;4959823;28;20047;-94
2024/02/06 09:51:41;;;;;;;11.57;6.05;;;;;;;14.08;100.00;99564.91;4959200;28;20128;-93
2024/02/06 09:54:08;;;;;;;15.23;6.10;;;;;;;13.81;100.00;99528.25;4960776;28;20075;-94
2024/02/06 09:56:35;;;;;;;10.88;5.05;;;;;;;13.87;100.00;99514.72;4962242;28;20103;-94
2024/02/06 09:59:05;;;;;;;11.20;4.78;;;;;;;13.87;100.00;99553.00;4958338;28;20071;-93
2024/02/06 10:01:35;;;;;;;13.30;4.80;;;;;;;13.95;100.00;99556.34;4955373;28;20501;-94
2024/02/06 10:04:04;;;;;;;11.50;5.22;;;;;;;14.14;100.00;99570.09;4959119;28;20106;-94
2024/02/06 10:06:30;;;;;;;12.40;5.03;;;;;;;14.08;100.00;99539.97;4958851;28;20416;-94
2024/02/06 10:08:57;;;;;;;10.10;4.60;;;;;;;14.04;100.00;99528.47;4961117;28;20027;-93
2024/02/06 10:11:24;;;;;;;13.50;5.05;;;;;;;13.88;100.00;99506.66;4957868;28;20448;-94
2024/02/06 10:13:50;;;;;;;17.08;4.70;;;;;;;14.25;100.00;99544.81;4959967;28;20043;-92
2024/02/06 10:16:16;;;;;;;15.32;5.75;;;;;;;14.17;100.00;99497.78;4954495;28;20058;-93
2024/02/06 10:18:51;;;;;;;13.18;5.28;;;;;;;14.30;100.00;99549.09;4963811;28;20145;-94
2024/02/06 10:21:18;;;;;;;14.02;4.22;;;;;;;14.07;100.00;99517.69;4958217;28;20098;-94
2024/02/06 10:23:45;;;;;;;11.10;4.35;;;;;;;14.14;100.00;99529.97;4956115;28;20043;-95
2024/02/06 10:26:11;;;;;;;9.80;3.95;;;;;;;14.22;100.00;99561.81;4960507;28;20067;-95
2024/02/06 10:28:37;;;;;;;10.63;4.40;;;;;;;13.81;100.00;99515.75;4959210;28;20073;-94
2024/02/06 10:31:10;;;;;;;9.50;4.50;;;;;;;14.11;100.00;99539.88;4956397;28;20035;-92
2024/02/06 10:33:36;;;;;;;8.50;4.07;;;;;;;14.23;100.00;99525.28;4957309;28;20138;-93
2024/02/06 10:36:02;;;;;;;8.55;4.18;;;;;;;14.56;100.00;99553.69;4956467;28;20560;-93
2024/02/06 10:38:29;;;;;;;11.73;4.05;;;;;;;14.41;100.00;99527.38;4961132;28;20049;-93
2024/02/06 10:40:55;;;;;;;9.40;3.80;;;;;;;14.47;100.00;99516.50;4961049;28;20039;-92
2024/02/06 10:43:28;;;;;;;8.75;3.10;;;;;;;14.42;100.00;99514.88;4959381;28;20047;-93
2024/02/06 10:45:57;;;;;;;13.50;4.50;;;;;;;14.05;100.00;99508.84;4958549;28;20043;-93
2024/02/06 10:48:23;;;;;;;7.82;3.92;;;;;;;14.21;100.00;99519.09;4957544;28;20051;-93
2024/02/06 10:50:58;;;;;;;14.18;3.88;;;;;;;14.23;100.00;99509.22;4960783;28;20035;-92
2024/02/06 10:53:24;;;;;;;9.68;3.70;;;;;;;14.13;100.00;99485.41;4962857;28;20051;-91
2024/02/06 10:55:57;;;;;;;15.82;4.50;;;;;;;14.34;100.00;99525.81;4962611;28;20043;-93
2024/02/06 10:58:27;;;;;;;12.32;4.30;;;;;;;14.17;100.00;99491.53;4959088;28;20137;-93
2024/02/06 11:00:54;;;;;;;10.90;4.18;;;;;;;14.18;100.00;99477.22;4954048;28;20519;-92
2024/02/06 11:03:23;;;;;;;11.88;4.05;;;;;;;14.13;100.00;99485.41;4963661;28;20070;-92
2024/02/06 11:05:54;;;;;;;9.68;3.85;;;;;;;14.34;100.00;99493.72;4960183;28;20071;-94
2024/02/06 11:08:22;;;;;;;9.63;3.90;;;;;;;14.10;100.00;99442.72;4959608;28;20086;-94
2024/02/06 11:10:55;;;;;;;10.45;3.72;;;;;;;14.32;100.00;99474.16;4959989;28;20063;-95
2024/02/06 11:13:27;;;;;;;18.25;5.70;;;;;;;14.26;100.00;99460.97;4963364;28;20131;-93
2024/02/06 11:15:54;;;;;;;25.85;14.82;;;;;;;14.54;100.00;99495.75;4958585;28;20412;-95